createdAt,value
2017-07-12T00:02:07.336Z,10.10
2017-07-12T00:04:34.841Z,8.93
2017-07-12T00:07:02.548Z,9.70
2017-07-12T00:09:30.055Z,9.53
2017-07-12T00:11:57.744Z,10.93
2017-07-12T00:14:25.402Z,9.00
2017-07-12T00:16:53.344Z,9.80
2017-07-12T00:19:20.796Z,10.27
2017-07-12T00:21:48.340Z,9.07
2017-07-12T00:24:18.630Z,9.30
2017-07-12T00:26:46.640Z,10.67
2017-07-12T00:29:17.399Z,9.77
2017-07-12T00:31:44.885Z,10.63
2017-07-12T00:34:12.405Z,11.73
2017-07-12T00:36:39.973Z,9.07
2017-07-12T00:39:07.584Z,9.13
2017-07-12T00:41:35.276Z,9.70
2017-07-12T00:44:02.776Z,9.63
2017-07-12T00:46:30.293Z,8.23
2017-07-12T00:48:58.662Z,8.87
2017-07-12T00:51:26.383Z,8.43
2017-07-12T00:53:53.928Z,8.33
2017-07-12T00:56:21.395Z,9.60
2017-07-12T00:58:49.034Z,10.57
2017-07-12T01:01:16.494Z,8.90
2017-07-12T01:03:44.072Z,11.33
2017-07-12T01:09:10.404Z,9.50
2017-07-12T01:11:37.974Z,9.80
2017-07-12T01:14:11.733Z,8.30
2017-07-12T01:16:39.188Z,10.10
2017-07-12T01:19:06.914Z,8.53
2017-07-12T01:21:34.717Z,9.10
2017-07-12T01:24:03.324Z,7.90
2017-07-12T01:26:30.818Z,12.23
2017-07-12T01:28:58.443Z,8.63
2017-07-12T01:31:26.996Z,10.50
2017-07-12T01:33:54.487Z,10.00
2017-07-12T01:36:21.989Z,9.97
2017-07-12T01:38:49.534Z,9.27
2017-07-12T01:41:17.017Z,11.40
2017-07-12T01:43:44.501Z,9.73
2017-07-12T01:46:12.766Z,9.23
2017-07-12T01:48:40.295Z,11.00
2017-07-12T01:51:07.769Z,8.93
2017-07-12T01:53:35.256Z,10.83
2017-07-12T01:56:02.825Z,11.50
2017-07-12T01:58:30.393Z,10.93
2017-07-12T02:00:58.820Z,11.50
2017-07-12T02:03:26.336Z,8.87
2017-07-12T02:05:53.873Z,10.50
2017-07-12T02:08:21.440Z,10.17
2017-07-12T02:10:48.920Z,8.37
2017-07-12T02:13:16.408Z,13.00
2017-07-12T02:15:43.895Z,10.43
2017-07-12T02:18:11.402Z,10.40
2017-07-12T02:20:39.132Z,10.47
2017-07-12T02:23:07.408Z,8.60
2017-07-12T02:25:34.880Z,9.80
2017-07-12T02:28:03.119Z,11.07
2017-07-12T02:30:30.596Z,10.80
2017-07-12T02:32:58.204Z,10.90
2017-07-12T02:35:26.341Z,13.77
2017-07-12T02:37:53.892Z,14.03
2017-07-12T02:40:21.446Z,11.07
2017-07-12T02:42:48.921Z,9.33
2017-07-12T02:45:16.621Z,10.87
2017-07-12T02:47:44.181Z,9.33
2017-07-12T02:50:11.694Z,10.07
2017-07-12T02:52:39.343Z,13.00
2017-07-12T02:55:06.953Z,14.27
2017-07-12T02:57:34.408Z,11.93
2017-07-12T03:00:01.938Z,14.07
2017-07-12T03:02:29.589Z,13.37
2017-07-12T03:04:57.147Z,10.77
2017-07-12T03:07:29.125Z,14.00
2017-07-12T03:09:57.711Z,10.37
2017-07-12T03:12:26.929Z,12.90
2017-07-12T03:14:54.496Z,11.53
2017-07-12T03:17:26.003Z,14.33
2017-07-12T03:19:54.470Z,12.77
2017-07-12T03:22:24.042Z,10.20
2017-07-12T03:24:51.548Z,14.73
2017-07-12T03:27:22.985Z,11.90
2017-07-12T03:29:59.279Z,11.27
2017-07-12T03:32:26.796Z,9.93
2017-07-12T03:34:54.599Z,10.50
2017-07-12T03:37:22.179Z,11.33
2017-07-12T03:40:15.820Z,11.33
2017-07-12T03:42:58.954Z,10.60
2017-07-12T03:45:26.631Z,13.60
2017-07-12T03:47:54.230Z,10.07
2017-07-12T03:50:21.751Z,11.47
2017-07-12T03:52:49.259Z,12.77
2017-07-12T03:55:16.770Z,9.43
2017-07-12T03:57:44.790Z,11.93
2017-07-12T04:00:12.326Z,9.60
2017-07-12T04:02:43.549Z,11.20
2017-07-12T04:05:12.271Z,10.40
2017-07-12T04:07:39.789Z,9.57
2017-07-12T04:10:07.301Z,11.27
2017-07-12T04:12:34.805Z,12.70
2017-07-12T04:15:02.423Z,10.63
2017-07-12T04:17:30.301Z,10.60
2017-07-12T04:19:57.850Z,10.70
2017-07-12T04:22:25.610Z,14.63
2017-07-12T04:24:53.222Z,14.50
2017-07-12T04:27:21.772Z,14.07
2017-07-12T04:29:49.296Z,13.30
2017-07-12T04:32:23.617Z,16.13
2017-07-12T04:34:51.277Z,12.37
2017-07-12T04:37:18.785Z,12.77
2017-07-12T04:39:48.081Z,14.30
2017-07-12T04:42:21.645Z,15.30
2017-07-12T04:44:53.617Z,14.77
2017-07-12T04:47:26.111Z,15.33
2017-07-12T04:49:56.629Z,13.00
2017-07-12T04:52:24.965Z,13.63
2017-07-12T04:54:52.557Z,12.90
2017-07-12T04:57:21.269Z,11.80
2017-07-12T04:59:48.809Z,11.83
2017-07-12T05:02:23.576Z,10.77
2017-07-12T05:04:52.327Z,14.10
2017-07-12T05:07:19.892Z,14.17
2017-07-12T05:09:47.391Z,16.10
2017-07-12T05:12:16.086Z,13.70
2017-07-12T05:14:44.484Z,16.70
2017-07-12T05:17:14.338Z,13.23
2017-07-12T05:19:44.223Z,16.57
2017-07-12T05:22:11.736Z,16.40
2017-07-12T05:24:39.458Z,16.37
2017-07-12T05:27:14.847Z,14.30
2017-07-12T05:29:42.459Z,14.30
2017-07-12T05:32:11.899Z,14.03
2017-07-12T05:34:41.413Z,14.33
2017-07-12T05:37:10.489Z,13.50
2017-07-12T05:39:38.262Z,15.30
2017-07-12T05:42:05.811Z,13.77
2017-07-12T05:44:34.209Z,12.97
2017-07-12T05:47:02.698Z,15.90
2017-07-12T05:49:31.280Z,13.63
2017-07-12T05:51:58.809Z,16.40
2017-07-12T05:54:26.908Z,14.87
2017-07-12T05:56:54.565Z,13.97
2017-07-12T05:59:22.221Z,14.57
2017-07-12T06:01:49.812Z,14.23
2017-07-12T06:04:17.516Z,14.43
2017-07-12T06:06:48.406Z,13.93
2017-07-12T06:09:15.975Z,19.20
2017-07-12T06:11:43.632Z,19.27
2017-07-12T06:14:11.552Z,18.43
2017-07-12T06:16:40.705Z,19.47
2017-07-12T06:19:08.254Z,15.43
2017-07-12T06:21:37.046Z,16.73
2017-07-12T06:24:09.617Z,15.83
2017-07-12T06:26:37.600Z,14.40
2017-07-12T06:29:13.117Z,17.40
2017-07-12T06:31:41.554Z,16.67
2017-07-12T06:34:09.840Z,12.37
2017-07-12T06:36:37.509Z,18.87
2017-07-12T06:39:05.089Z,11.70
2017-07-12T06:41:32.759Z,15.33
2017-07-12T06:44:01.917Z,14.93
2017-07-12T06:46:30.054Z,14.67
2017-07-12T06:48:57.622Z,12.77
2017-07-12T06:51:25.670Z,12.77
2017-07-12T06:53:54.120Z,11.97
2017-07-12T06:56:26.566Z,11.73
2017-07-12T06:58:56.201Z,14.70
2017-07-12T07:01:25.237Z,18.00
2017-07-12T07:03:52.910Z,12.43
2017-07-12T07:06:21.687Z,14.70
2017-07-12T07:08:49.241Z,13.73
2017-07-12T07:11:20.040Z,11.70
2017-07-12T07:13:48.578Z,11.77
2017-07-12T07:16:16.306Z,10.37
2017-07-12T07:18:45.136Z,12.73
2017-07-12T07:21:12.925Z,10.13
2017-07-12T07:23:41.253Z,14.70
2017-07-12T07:26:08.999Z,14.90
2017-07-12T07:28:36.829Z,12.23
2017-07-12T07:31:07.190Z,9.03
2017-07-12T07:33:37.116Z,11.63
2017-07-12T07:36:06.611Z,9.87
2017-07-12T07:38:38.506Z,11.60
2017-07-12T07:41:06.385Z,17.83
2017-07-12T07:43:33.993Z,13.17
2017-07-12T07:46:01.859Z,8.47
2017-07-12T07:48:29.464Z,10.70
2017-07-12T07:50:57.202Z,11.00
2017-07-12T07:53:24.964Z,10.03
2017-07-12T07:55:53.297Z,10.50
2017-07-12T07:58:20.892Z,12.17
2017-07-12T08:00:48.503Z,9.63
2017-07-12T08:03:16.045Z,10.53
2017-07-12T08:05:43.581Z,14.67
2017-07-12T08:08:11.103Z,11.73
2017-07-12T08:10:38.646Z,8.13
2017-07-12T08:13:06.208Z,8.17
2017-07-12T08:15:34.071Z,10.47
2017-07-12T08:18:01.707Z,8.90
2017-07-12T08:20:31.177Z,11.23
2017-07-12T08:22:59.949Z,10.00
2017-07-12T08:25:28.343Z,10.80
2017-07-12T08:27:56.360Z,12.73
2017-07-12T08:30:23.868Z,8.57
2017-07-12T08:32:57.004Z,8.90
2017-07-12T08:38:55.581Z,8.40
2017-07-12T08:41:23.193Z,8.67
2017-07-12T08:43:50.995Z,7.17
2017-07-12T08:46:18.693Z,6.80
2017-07-12T08:48:49.779Z,9.07
2017-07-12T08:51:17.313Z,10.70
2017-07-12T08:53:45.120Z,7.73
2017-07-12T08:56:12.668Z,9.47
2017-07-12T08:58:40.433Z,8.87
2017-07-12T09:01:08.841Z,7.40
2017-07-12T09:03:36.381Z,6.37
2017-07-12T09:06:04.356Z,7.00
2017-07-12T09:08:33.816Z,7.60
2017-07-12T09:11:01.826Z,5.63
2017-07-12T09:13:30.472Z,7.97
2017-07-12T09:15:58.758Z,6.00
2017-07-12T09:18:27.713Z,6.83
2017-07-12T09:20:55.613Z,4.73
2017-07-12T09:23:23.387Z,5.33
2017-07-12T09:33:15.126Z,8.80
2017-07-12T09:35:45.320Z,5.67
2017-07-12T09:38:14.226Z,6.77
2017-07-12T09:40:43.084Z,6.10
2017-07-12T09:43:10.912Z,8.77
2017-07-12T09:45:42.549Z,5.00
2017-07-12T09:48:13.825Z,6.53
2017-07-12T09:50:42.843Z,6.03
2017-07-12T09:53:10.870Z,6.07
2017-07-12T09:55:38.899Z,4.60
2017-07-12T09:58:11.017Z,7.30
2017-07-12T10:00:38.831Z,5.30
2017-07-12T10:03:08.897Z,5.40
2017-07-12T10:05:36.579Z,4.17
2017-07-12T10:08:04.416Z,6.50
2017-07-12T10:10:32.148Z,4.60
2017-07-12T10:12:59.752Z,6.20
2017-07-12T10:15:27.361Z,4.40
2017-07-12T10:17:54.928Z,6.20
2017-07-12T10:20:23.527Z,5.70
2017-07-12T10:22:51.234Z,9.43
2017-07-12T10:25:18.849Z,5.40
2017-07-12T10:27:46.506Z,3.93
2017-07-12T10:30:15.188Z,7.73
2017-07-12T10:32:43.042Z,5.23
2017-07-12T10:35:11.781Z,5.60
2017-07-12T10:37:40.467Z,5.73
2017-07-12T10:40:08.331Z,5.27
2017-07-12T10:42:37.349Z,6.93
2017-07-12T10:45:07.996Z,7.27
2017-07-12T10:47:35.543Z,11.33
2017-07-12T10:50:07.930Z,8.10
2017-07-12T10:52:38.832Z,7.07
2017-07-12T10:55:07.937Z,8.10
2017-07-12T10:57:35.493Z,11.43
2017-07-12T11:00:03.561Z,10.33
2017-07-12T11:02:32.392Z,11.20
2017-07-12T11:05:01.852Z,11.00
2017-07-12T11:07:30.047Z,10.33
2017-07-12T11:09:58.621Z,10.77
2017-07-12T11:12:27.660Z,10.30
2017-07-12T11:14:55.962Z,8.13
2017-07-12T11:17:24.151Z,9.10
2017-07-12T11:19:51.855Z,9.07
2017-07-12T11:22:26.475Z,8.47
2017-07-12T11:24:54.286Z,9.47
2017-07-12T11:27:21.951Z,7.37
2017-07-12T11:29:49.848Z,9.00
2017-07-12T11:32:18.672Z,10.00
2017-07-12T11:34:47.488Z,7.77
2017-07-12T11:37:15.192Z,7.80
2017-07-12T11:39:42.736Z,5.10
2017-07-12T11:42:11.150Z,7.43
2017-07-12T11:44:41.865Z,6.90
2017-07-12T11:47:11.190Z,6.43
2017-07-12T11:49:39.830Z,5.60
2017-07-12T11:55:11.353Z,6.40
2017-07-12T11:57:38.973Z,6.67
2017-07-12T12:00:07.696Z,6.20
2017-07-12T12:02:36.299Z,5.63
2017-07-12T12:05:04.417Z,4.43
2017-07-12T12:07:32.902Z,3.40
2017-07-12T12:10:05.244Z,4.27
2017-07-12T12:12:36.334Z,4.30
2017-07-12T12:15:09.601Z,4.53
2017-07-12T12:17:38.018Z,3.17
2017-07-12T12:20:05.841Z,3.83
2017-07-12T12:22:34.488Z,4.13
2017-07-12T12:25:03.243Z,3.03
2017-07-12T12:27:31.044Z,3.30
2017-07-12T12:29:58.755Z,4.27
2017-07-12T12:32:26.428Z,2.77
2017-07-12T12:34:54.089Z,18.63
2017-07-12T12:37:21.661Z,2.10
2017-07-12T12:39:50.389Z,3.13
2017-07-12T12:42:18.988Z,1.87
2017-07-12T12:44:46.464Z,4.00
2017-07-12T12:47:14.064Z,1.70
2017-07-12T12:49:43.558Z,1.87
2017-07-12T12:52:13.763Z,1.40
2017-07-12T12:54:45.106Z,1.80
2017-07-12T12:57:15.920Z,5.03
2017-07-12T12:59:44.797Z,1.87
2017-07-12T13:02:14.181Z,2.20
2017-07-12T13:05:08.674Z,3.03
2017-07-12T13:07:36.941Z,2.83
2017-07-12T13:10:17.284Z,3.97
2017-07-12T13:12:45.573Z,5.30
2017-07-12T13:15:13.418Z,5.30
2017-07-12T13:17:42.268Z,4.37
2017-07-12T13:20:09.986Z,6.73
2017-07-12T13:22:37.548Z,4.13
2017-07-12T13:25:06.429Z,6.00
2017-07-12T13:27:34.324Z,5.20
2017-07-12T13:30:04.273Z,5.20
2017-07-12T13:32:32.531Z,3.87
2017-07-12T13:35:01.610Z,4.87
2017-07-12T13:37:31.114Z,7.43
2017-07-12T13:40:03.051Z,4.93
2017-07-12T13:42:30.771Z,7.97
2017-07-12T13:44:59.203Z,6.20
2017-07-12T13:47:26.960Z,4.60
2017-07-12T13:49:55.291Z,4.13
2017-07-12T13:52:22.954Z,6.27
2017-07-12T13:54:50.792Z,4.03
2017-07-12T13:57:18.464Z,5.23
2017-07-12T13:59:47.756Z,6.00
2017-07-12T14:02:15.475Z,4.20
2017-07-12T14:04:44.485Z,2.90
2017-07-12T14:07:12.374Z,5.00
2017-07-12T14:09:40.896Z,4.93
2017-07-12T14:12:08.666Z,5.73
2017-07-12T14:14:36.094Z,3.87
2017-07-12T14:17:06.875Z,4.10
2017-07-12T14:19:35.117Z,3.93
2017-07-12T14:22:05.209Z,3.50
2017-07-12T14:24:56.301Z,4.93
2017-07-12T14:27:56.240Z,3.90
2017-07-12T14:30:28.576Z,6.37
2017-07-12T14:33:05.478Z,4.93
2017-07-12T14:39:06.323Z,5.27
2017-07-12T14:41:36.379Z,5.00
2017-07-12T14:44:17.982Z,5.00
2017-07-12T15:02:30.853Z,5.27
2017-07-12T15:05:01.935Z,5.77
2017-07-12T15:08:06.959Z,3.43
2017-07-12T15:10:42.321Z,2.53
2017-07-12T15:13:22.326Z,2.30
2017-07-12T15:15:58.283Z,4.53
2017-07-12T15:39:28.192Z,3.83
2017-07-12T15:41:56.771Z,4.87
2017-07-12T15:44:25.367Z,4.97
2017-07-12T15:46:53.095Z,5.60
2017-07-12T15:49:21.031Z,5.20
2017-07-12T15:51:48.853Z,5.67
2017-07-12T15:54:16.949Z,3.80
2017-07-12T15:56:44.533Z,5.10
2017-07-12T15:59:13.069Z,6.63
2017-07-12T16:01:40.776Z,5.60
2017-07-12T16:04:11.469Z,5.50
2017-07-12T16:06:40.210Z,3.70
2017-07-12T16:09:28.097Z,6.10
2017-07-12T16:11:57.092Z,7.90
2017-07-12T16:28:45.823Z,8.13
2017-07-12T16:49:45.368Z,11.60
2017-07-12T17:06:44.769Z,8.43
2017-07-12T17:09:26.274Z,7.20
2017-07-12T17:12:12.254Z,13.63
2017-07-12T17:26:33.726Z,8.43
2017-07-12T17:31:50.636Z,11.10
2017-07-12T17:34:28.546Z,8.83
2017-07-12T17:38:36.244Z,7.63
2017-07-12T17:41:04.441Z,7.10
2017-07-12T17:43:34.586Z,8.00
2017-07-12T17:46:03.065Z,9.93
2017-07-12T17:48:35.053Z,7.73
2017-07-12T17:51:03.494Z,8.80
2017-07-12T17:53:38.911Z,6.43
2017-07-12T17:56:20.919Z,6.70
2017-07-12T17:58:50.766Z,7.50
2017-07-12T18:01:19.626Z,10.50
2017-07-12T18:03:47.639Z,8.53
2017-07-12T18:06:16.790Z,8.57
2017-07-12T18:08:44.390Z,7.47
2017-07-12T18:11:13.791Z,4.33
2017-07-12T18:13:41.450Z,3.43
2017-07-12T18:16:09.406Z,4.77
2017-07-12T18:18:47.313Z,5.43
2017-07-12T18:21:19.161Z,9.03
2017-07-12T18:23:47.702Z,8.10
2017-07-12T18:26:17.275Z,6.67
2017-07-12T18:28:45.751Z,5.30
2017-07-12T18:31:16.314Z,6.37
2017-07-12T18:33:45.378Z,5.03
2017-07-12T18:36:17.487Z,11.13
2017-07-12T18:38:46.587Z,7.40
2017-07-12T18:41:15.376Z,7.60
2017-07-12T18:43:42.866Z,6.27
2017-07-12T18:46:10.370Z,11.57
2017-07-12T18:48:38.089Z,7.23
2017-07-12T18:51:07.623Z,7.70
2017-07-12T18:53:35.298Z,7.27
2017-07-12T18:56:03.200Z,5.77
2017-07-12T18:58:30.774Z,8.67
2017-07-12T19:00:58.463Z,6.07
2017-07-12T19:03:26.589Z,7.63
2017-07-12T19:05:54.336Z,4.23
2017-07-12T19:08:23.161Z,5.57
2017-07-12T19:10:50.712Z,5.20
2017-07-12T19:13:22.004Z,8.50
2017-07-12T19:15:50.111Z,8.00
2017-07-12T19:18:21.920Z,9.80
2017-07-12T19:20:50.179Z,8.40
2017-07-12T19:23:20.301Z,8.43
2017-07-12T19:25:47.945Z,5.83
2017-07-12T19:28:18.321Z,6.80
2017-07-12T19:30:46.865Z,9.17
2017-07-12T19:33:15.246Z,9.67
2017-07-12T19:35:42.763Z,7.07
2017-07-12T19:38:10.319Z,4.30
2017-07-12T19:40:37.922Z,6.50
2017-07-12T19:43:05.588Z,11.77
2017-07-12T19:45:33.166Z,13.40
2017-07-12T19:48:04.145Z,9.63
2017-07-12T19:50:31.777Z,6.60
2017-07-12T19:52:59.462Z,7.33
2017-07-12T19:55:28.649Z,6.33
2017-07-12T19:57:56.196Z,6.13
2017-07-12T20:00:25.087Z,7.10
2017-07-12T20:02:52.680Z,4.73
2017-07-12T20:05:22.732Z,8.10
2017-07-12T20:07:50.201Z,9.90
2017-07-12T20:10:18.616Z,8.70
2017-07-12T20:12:46.431Z,6.40
2017-07-12T20:15:14.064Z,5.20
2017-07-12T20:17:41.613Z,8.50
2017-07-12T20:20:09.178Z,5.90
2017-07-12T20:22:36.773Z,6.97
2017-07-12T20:25:05.943Z,10.17
2017-07-12T20:27:33.557Z,7.47
2017-07-12T20:30:01.017Z,8.03
2017-07-12T20:32:28.814Z,10.93
2017-07-12T20:34:56.383Z,6.93
2017-07-12T20:37:24.043Z,7.93
2017-07-12T20:39:51.679Z,6.03
2017-07-12T20:42:19.196Z,10.07
2017-07-12T20:44:46.819Z,11.30
2017-07-12T20:47:16.294Z,8.20
2017-07-12T20:49:44.496Z,9.83
2017-07-12T20:52:13.739Z,11.20
2017-07-12T20:54:41.340Z,6.97
2017-07-12T20:57:09.005Z,9.67
2017-07-12T20:59:36.582Z,11.43
2017-07-12T21:02:05.559Z,5.77
2017-07-12T21:04:33.106Z,11.07
2017-07-12T21:07:00.553Z,7.47
2017-07-12T21:09:28.064Z,8.47
2017-07-12T21:11:55.708Z,11.37
2017-07-12T21:14:23.694Z,13.23
2017-07-12T21:16:51.292Z,14.00
2017-07-12T21:19:18.763Z,11.97
2017-07-12T21:21:48.234Z,12.50
2017-07-12T21:24:15.770Z,10.20
2017-07-12T21:26:43.256Z,14.90
2017-07-12T21:29:10.784Z,11.47
2017-07-12T21:31:39.661Z,8.43
2017-07-12T21:34:08.059Z,10.07
2017-07-12T21:36:36.224Z,8.57
2017-07-12T21:39:03.831Z,21.37
2017-07-12T21:41:31.318Z,47.93
2017-07-12T21:43:58.798Z,8.20
2017-07-12T21:46:26.256Z,8.60
2017-07-12T21:48:53.785Z,11.00
2017-07-12T21:51:21.270Z,11.30
2017-07-12T21:54:06.428Z,8.13
2017-07-12T21:56:51.537Z,7.20
2017-07-12T21:59:36.725Z,6.30
2017-07-12T22:02:21.817Z,19.47
2017-07-12T22:05:06.904Z,11.97
2017-07-12T22:07:51.971Z,7.90
2017-07-12T22:10:37.884Z,13.07
2017-07-12T22:13:23.232Z,15.10
2017-07-12T22:16:08.193Z,8.97
2017-07-12T22:18:53.508Z,5.90
2017-07-12T22:21:38.910Z,5.50
2017-07-12T22:24:24.769Z,10.27
2017-07-12T22:27:09.927Z,10.93
2017-07-12T22:29:54.912Z,8.57
2017-07-12T22:32:41.047Z,9.43
2017-07-12T22:35:26.283Z,9.30
2017-07-12T22:37:59.374Z,10.33
2017-07-12T22:40:32.485Z,7.80
2017-07-12T22:43:08.051Z,8.23
2017-07-12T22:45:35.552Z,8.50
2017-07-12T22:48:03.957Z,6.57
2017-07-12T22:50:31.435Z,16.17
2017-07-12T22:52:58.998Z,11.53
2017-07-12T22:55:26.508Z,10.03
2017-07-12T22:57:54.236Z,7.83
2017-07-12T23:00:21.759Z,10.10
2017-07-12T23:02:49.225Z,11.00
2017-07-12T23:05:16.780Z,12.53
2017-07-12T23:07:44.241Z,8.80
2017-07-12T23:10:11.877Z,8.07
2017-07-12T23:12:39.583Z,13.30
2017-07-12T23:15:07.098Z,12.40
2017-07-12T23:17:34.584Z,13.57
2017-07-12T23:20:02.473Z,11.60
2017-07-12T23:22:29.919Z,10.73
2017-07-12T23:24:57.447Z,9.47
2017-07-12T23:27:24.935Z,13.70
2017-07-12T23:29:52.511Z,11.17
2017-07-12T23:32:20.089Z,24.00
2017-07-12T23:34:47.889Z,15.20
2017-07-12T23:37:15.524Z,13.10
2017-07-12T23:39:43.044Z,16.37
2017-07-12T23:42:10.562Z,11.17
2017-07-12T23:44:38.023Z,13.23
2017-07-12T23:47:05.578Z,13.13
2017-07-12T23:49:33.848Z,16.57
2017-07-12T23:52:01.253Z,12.50
2017-07-12T23:54:29.096Z,14.90
2017-07-12T23:56:58.173Z,10.00
2017-07-12T23:59:25.762Z,9.73
